Time;durP1;ratioP1;P1;durP2;ratioP2;P2;SDS_P1;SDS_P2;PMS_P1;PMS_P2;Temp;Humidity;BMP_temperature;BMP_pressure;BME280_temperature;BME280_humidity;BME280_pressure;Samples;Min_cycle;Max_cycle;Signal;HPM_P1;HPM_P2
2023/03/04 00:08:08;;;;;;;;;;;;;;;7.13;77.12;102514.81;20927488;28;19933;-59
2023/03/04 00:18:29;;;;;;;;;;;;;;;7.13;76.97;102514.81;20962377;28;19924;-60
2023/03/04 00:28:50;;;;;;;;;;;;;;;7.12;78.01;102509.63;20948204;28;19928;-60
2023/03/04 00:39:12;;;;;;;;;;;;;;;7.09;77.17;102496.72;20957720;28;19924;-59
2023/03/04 00:49:33;;;;;;;;;;;;;;;7.11;77.64;102501.06;20944655;28;20338;-60
2023/03/04 00:59:55;;;;;;;;;;;;;;;7.10;77.51;102494.16;20953431;28;19995;-59
2023/03/04 01:10:16;;;;;;;;;;;;;;;7.13;77.08;102491.63;20951590;28;19929;-59
2023/03/04 01:20:38;;;;;;;;;;;;;;;7.13;77.36;102478.75;20944925;28;20002;-60
2023/03/04 01:30:59;;;;;;;;;;;;;;;7.17;77.43;102455.63;20956018;28;19993;-60
2023/03/04 01:41:25;;;;;;;;;;;;;;;7.16;76.63;102451.34;20951893;28;19970;-59
2023/03/04 01:51:53;;;;;;;;;;;;;;;7.19;76.55;102441.06;20942575;28;20335;-60
2023/03/04 02:02:14;;;;;;;;;;;;;;;7.13;77.00;102432.44;20904278;28;19925;-59
2023/03/04 02:12:36;;;;;;;;;;;;;;;7.07;78.14;102419.50;20942443;28;20326;-60
2023/03/04 02:22:57;;;;;;;;;;;;;;;7.08;77.74;102412.66;20938376;28;19928;-59
2023/03/04 02:33:19;;;;;;;;;;;;;;;7.08;77.92;102404.94;20946405;28;19924;-59
2023/03/04 02:43:40;;;;;;;;;;;;;;;7.06;78.05;102398.91;20961958;28;19928;-61
2023/03/04 02:54:02;;;;;;;;;;;;;;;7.08;77.74;102392.06;20950457;28;19994;-61
2023/03/04 03:04:24;;;;;;;;;;;;;;;7.05;78.33;102382.59;20946078;28;19958;-59
2023/03/04 03:14:45;;;;;;;;;;;;;;;6.99;78.54;102379.97;20946817;28;19929;-60
2023/03/04 03:25:08;;;;;;;;;;;;;;;6.99;78.43;102361.09;20958660;28;19951;-60
2023/03/04 03:35:29;;;;;;;;;;;;;;;6.99;78.00;102359.41;20954508;28;19986;-60
2023/03/04 03:45:51;;;;;;;;;;;;;;;6.93;78.62;102349.03;20947831;28;19924;-60
2023/03/04 03:56:12;;;;;;;;;;;;;;;6.90;79.24;102345.56;20939584;28;20376;-60
2023/03/04 04:06:33;;;;;;;;;;;;;;;6.88;78.96;102344.69;20934637;28;19928;-60
2023/03/04 04:16:55;;;;;;;;;;;;;;;6.84;80.47;102330.94;20949618;28;20338;-60
2023/03/04 04:27:16;;;;;;;;;;;;;;;6.75;80.96;102320.56;20950009;28;19982;-61
2023/03/04 04:37:38;;;;;;;;;;;;;;;6.71;81.12;102318.81;20951566;28;19970;-59
2023/03/04 04:48:02;;;;;;;;;;;;;;;6.73;81.74;102317.13;20950831;28;19982;-59
2023/03/04 04:58:24;;;;;;;;;;;;;;;6.66;83.11;102325.63;20944642;28;19933;-61
2023/03/04 05:08:45;;;;;;;;;;;;;;;6.62;83.90;102321.28;20959574;28;19978;-61
2023/03/04 05:19:07;;;;;;;;;;;;;;;6.53;86.67;102321.19;20940550;28;20070;-60
2023/03/04 05:29:28;;;;;;;;;;;;;;;6.47;88.76;102344.25;20941203;28;20350;-60
2023/03/04 05:39:49;;;;;;;;;;;;;;;6.42;90.40;102330.50;20948372;28;19932;-58
2023/03/04 05:50:11;;;;;;;;;;;;;;;6.45;91.27;102325.38;20950208;28;19924;-60
2023/03/04 06:00:32;;;;;;;;;;;;;;;6.42;91.46;102314.22;20939189;28;20311;-60
2023/03/04 06:10:55;;;;;;;;;;;;;;;6.44;92.29;102321.09;20942924;28;19979;-59
2023/03/04 06:21:16;;;;;;;;;;;;;;;6.46;92.36;102321.13;20942636;28;19998;-59
2023/03/04 06:31:40;;;;;;;;;;;;;;;6.45;91.81;102311.66;20928660;28;19982;-59
2023/03/04 06:42:02;;;;;;;;;;;;;;;6.54;91.77;102319.47;20945365;28;19954;-60
2023/03/04 06:52:23;;;;;;;;;;;;;;;6.58;90.47;102328.94;20932444;28;20824;-59
2023/03/04 07:02:44;;;;;;;;;;;;;;;6.62;90.05;102344.44;20946876;28;19933;-58
2023/03/04 07:13:06;;;;;;;;;;;;;;;6.72;88.38;102345.41;20940317;28;19924;-59
2023/03/04 07:23:27;;;;;;;;;;;;;;;6.81;87.64;102336.03;20970572;28;19928;-59
2023/03/04 07:33:49;;;;;;;;;;;;;;;6.86;86.57;102342.13;20956053;28;19963;-58
2023/03/04 07:44:11;;;;;;;;;;;;;;;6.89;85.43;102355.00;20952542;28;19925;-59
2023/03/04 07:54:33;;;;;;;;;;;;;;;6.93;84.80;102356.75;20956758;28;19924;-58
2023/03/04 08:04:55;;;;;;;;;;;;;;;6.95;85.40;102367.06;20944923;28;19972;-60
2023/03/04 08:15:16;;;;;;;;;;;;;;;6.94;84.25;102362.78;20940738;28;19932;-57
2023/03/04 08:25:39;;;;;;;;;;;;;;;7.04;82.70;102360.28;20958204;28;19929;-58
2023/03/04 08:36:00;;;;;;;;;;;;;;;7.11;81.02;102367.22;20949044;28;19929;-59
2023/03/04 08:46:22;;;;;;;;;;;;;;;7.19;80.10;102379.28;20938014;28;19924;-59
2023/03/04 08:56:43;;;;;;;;;;;;;;;7.22;80.28;102375.03;20943875;28;19977;-59
2023/03/04 09:07:04;;;;;;;;;;;;;;;7.34;79.69;102385.44;20940614;28;19933;-58
2023/03/04 09:17:26;;;;;;;;;;;;;;;7.21;82.06;102381.03;20953978;28;19924;-60
2023/03/04 09:27:47;;;;;;;;;;;;;;;7.06;82.96;102388.59;20941098;28;19924;-59
2023/03/04 09:38:11;;;;;;;;;;;;;;;6.92;84.36;102392.78;20947807;28;19932;-59
2023/03/04 09:48:38;;;;;;;;;;;;;;;7.09;81.57;102393.78;20934002;28;20611;-59
2023/03/04 09:59:35;;;;;;;;;;;;;;;7.19;78.33;102398.16;20939939;28;19939;-60
2023/03/04 10:10:06;;;;;;;;;;;;;;;6.93;79.36;102403.06;20868600;28;19971;-60
2023/03/04 10:20:31;;;;;;;;;;;;;;;6.84;79.87;102415.84;20942299;28;19925;-59
2023/03/04 10:31:22;;;;;;;;;;;;;;;6.99;79.99;102413.44;20938101;28;19925;-59
2023/03/04 10:41:45;;;;;;;;;;;;;;;7.19;78.85;102405.03;20907696;28;19924;-58
2023/03/04 10:52:26;;;;;;;;;;;;;;;7.31;77.92;102400.84;20957119;28;20386;-58
2023/03/04 11:02:48;;;;;;;;;;;;;;;7.30;79.43;102408.56;20961440;28;19924;-58
2023/03/04 11:13:17;;;;;;;;;;;;;;;6.71;83.89;102395.09;20947378;28;19932;-58
2023/03/04 11:23:42;;;;;;;;;;;;;;;6.81;80.95;102382.34;20945427;28;19932;-59
2023/03/04 11:34:03;;;;;;;;;;;;;;;6.97;80.61;102368.81;20959468;28;19929;-59
2023/03/04 11:44:24;;;;;;;;;;;;;;;7.24;80.35;102362.16;20956331;28;19928;-59
2023/03/04 11:55:05;;;;;;;;;;;;;;;7.46;77.98;102354.63;20947678;28;19928;-60
2023/03/04 12:05:33;;;;;;;;;;;;;;;7.49;77.28;102334.03;20962565;28;20534;-60
2023/03/04 12:16:01;;;;;;;;;;;;;;;7.56;76.31;102340.09;20939734;28;19933;-59
2023/03/04 12:26:25;;;;;;;;;;;;;;;7.27;78.33;102342.44;20943260;28;20415;-60
2023/03/04 12:37:06;;;;;;;;;;;;;;;7.34;76.50;102340.78;20951946;28;19978;-61
2023/03/04 12:47:51;;;;;;;;;;;;;;;7.51;73.58;102321.19;20955491;28;19960;-59
2023/03/04 12:58:21;;;;;;;;;;;;;;;7.67;72.55;102307.53;20928582;28;19953;-59
2023/03/04 13:09:01;;;;;;;;;;;;;;;7.62;73.74;102304.06;20955572;28;20022;-59
2023/03/04 13:19:41;;;;;;;;;;;;;;;7.27;75.38;102311.56;20959865;28;20336;-58
2023/03/04 13:30:23;;;;;;;;;;;;;;;7.24;73.13;102313.25;20939239;28;19951;-59
2023/03/04 13:41:04;;;;;;;;;;;;;;;7.36;69.56;102300.47;20960794;28;20008;-59
2023/03/04 13:51:46;;;;;;;;;;;;;;;7.36;70.52;102305.63;20942431;28;19936;-59
2023/03/04 14:12:48;;;;;;;;;;;;;;;7.24;71.52;102290.06;20872580;23;20024;-57
2023/03/04 14:23:25;;;;;;;;;;;;;;;7.18;73.14;102308.91;20698426;28;19984;-58
2023/03/04 14:33:53;;;;;;;;;;;;;;;6.72;77.49;102319.69;20711607;28;19981;-58
2023/03/04 14:44:14;;;;;;;;;;;;;;;6.73;77.54;102304.25;20719005;28;20356;-57
2023/03/04 14:54:35;;;;;;;;;;;;;;;6.83;76.64;102282.91;20706895;28;19926;-57
2023/03/04 15:05:06;;;;;;;;;;;;;;;6.90;71.72;102284.66;20710923;28;20620;-57
2023/03/04 15:15:38;;;;;;;;;;;;;;;6.95;71.75;102283.03;20697921;28;19972;-58
2023/03/04 15:26:01;;;;;;;;;;;;;;;6.95;71.91;102280.44;20723139;28;20008;-57
2023/03/04 15:36:23;;;;;;;;;;;;;;;6.96;71.01;102273.56;20706757;28;19929;-57
2023/03/04 15:46:44;;;;;;;;;;;;;;;6.84;71.82;102265.75;20703219;28;19926;-57
2023/03/04 15:57:08;;;;;;;;;;;;;;;6.87;70.71;102258.94;20704807;28;20068;-56
2023/03/04 16:07:29;;;;;;;;;;;;;;;6.64;75.26;102296.47;20691480;28;20035;-57
2023/03/04 16:17:51;;;;;;;;;;;;;;;6.15;78.00;102289.06;20704327;28;19925;-59
2023/03/04 16:28:12;;;;;;;;;;;;;;;6.13;77.44;102268.47;20692370;28;19930;-57
2023/03/04 16:38:34;;;;;;;;;;;;;;;6.07;77.00;102275.25;20688037;28;20329;-57
2023/03/04 16:48:55;;;;;;;;;;;;;;;5.98;79.85;102270.03;20695318;28;19929;-58
2023/03/04 16:59:17;;;;;;;;;;;;;;;5.97;78.81;102258.88;20691310;28;19925;-57
2023/03/04 17:09:38;;;;;;;;;;;;;;;5.98;79.27;102270.03;20684000;28;19926;-56
2023/03/04 17:20:08;;;;;;;;;;;;;;;5.87;80.20;102267.34;20665249;28;20396;-57
2023/03/04 17:30:30;;;;;;;;;;;;;;;5.77;79.44;102259.44;20579339;28;19931;-58
2023/03/04 17:40:51;;;;;;;;;;;;;;;5.72;81.16;102272.22;20589792;28;19958;-57
2023/03/04 17:51:13;;;;;;;;;;;;;;;5.56;81.89;102277.13;20583640;28;19935;-57
2023/03/04 18:01:35;;;;;;;;;;;;;;;5.48;81.84;102287.31;20560648;28;19968;-56
2023/03/04 18:11:56;;;;;;;;;;;;;;;5.46;82.48;102285.53;20578722;28;20403;-58
2023/03/04 18:22:17;;;;;;;;;;;;;;;5.37;80.97;102286.28;20575066;28;19933;-57
2023/03/04 18:32:42;;;;;;;;;;;;;;;5.34;80.89;102269.97;20518744;28;19956;-58
2023/03/04 18:43:12;;;;;;;;;;;;;;;5.29;80.74;102263.94;20563654;28;20350;-58
2023/03/04 18:53:34;;;;;;;;;;;;;;;5.25;80.44;102267.28;20521705;28;20459;-56
2023/03/04 19:03:57;;;;;;;;;;;;;;;5.36;79.96;102260.59;20507600;28;19927;-56
2023/03/04 19:14:19;;;;;;;;;;;;;;;5.33;79.84;102268.28;20526623;28;20013;-56
2023/03/04 19:24:40;;;;;;;;;;;;;;;5.34;81.21;102278.53;20518105;28;20288;-56
2023/03/04 19:35:02;;;;;;;;;;;;;;;5.26;80.33;102274.13;20529765;28;20059;-57
2023/03/04 19:45:24;;;;;;;;;;;;;;;5.23;80.43;102281.78;20505285;28;19926;-56
2023/03/04 19:55:47;;;;;;;;;;;;;;;5.22;80.22;102272.38;20515464;28;19930;-57
2023/03/04 20:06:09;;;;;;;;;;;;;;;5.13;80.54;102267.94;20979881;22;19928;-57
2023/03/04 20:16:31;;;;;;;;;;;;;;;5.09;81.63;102261.91;21013580;28;19977;-58
2023/03/04 20:26:52;;;;;;;;;;;;;;;5.05;81.07;102260.13;21004324;28;19932;-58
2023/03/04 20:37:14;;;;;;;;;;;;;;;5.05;81.24;102257.56;21022369;28;20406;-58
2023/03/04 20:47:35;;;;;;;;;;;;;;;4.97;80.75;102260.88;21004639;28;20358;-60
2023/03/04 20:57:59;;;;;;;;;;;;;;;4.90;81.50;102262.47;21006277;28;19924;-59
2023/03/04 21:08:21;;;;;;;;;;;;;;;4.95;80.87;102250.59;21003558;28;19958;-57
2023/03/04 21:18:43;;;;;;;;;;;;;;;4.94;81.91;102233.47;21005719;28;19974;-59
2023/03/04 21:29:04;;;;;;;;;;;;;;;4.89;81.77;102222.28;21016535;28;19924;-58
2023/03/04 21:39:26;;;;;;;;;;;;;;;4.89;82.23;102212.00;21010737;28;19973;-59
2023/03/04 21:49:47;;;;;;;;;;;;;;;4.90;81.64;102213.75;20983642;28;19929;-58
2023/03/04 22:00:09;;;;;;;;;;;;;;;4.90;80.82;102203.50;21007593;28;19928;-59
2023/03/04 22:10:30;;;;;;;;;;;;;;;4.86;81.99;102204.28;21021237;28;19982;-58
2023/03/04 22:20:58;;;;;;;;;;;;;;;4.88;81.18;102192.34;21024153;28;19986;-60
2023/03/04 22:31:28;;;;;;;;;;;;;;;4.83;81.71;102188.00;21017465;28;20523;-58
2023/03/04 22:41:49;;;;;;;;;;;;;;;4.86;80.98;102176.09;21006584;28;19947;-59
2023/03/04 22:52:11;;;;;;;;;;;;;;;4.81;81.48;102172.59;21025694;28;19936;-59
2023/03/04 23:02:32;;;;;;;;;;;;;;;4.78;81.37;102153.75;21025054;28;20279;-60
2023/03/04 23:12:54;;;;;;;;;;;;;;;4.73;81.98;102153.66;21016753;28;20383;-58
2023/03/04 23:23:15;;;;;;;;;;;;;;;4.68;82.63;102150.16;21002406;28;20038;-60
2023/03/04 23:33:38;;;;;;;;;;;;;;;4.66;81.37;102138.16;21004340;28;20429;-60
2023/03/04 23:44:00;;;;;;;;;;;;;;;4.56;83.29;102134.59;21008814;28;20535;-59
2023/03/04 23:54:21;;;;;;;;;;;;;;;4.46;84.08;102124.19;21019395;28;19965;-57
